Time;durP1;ratioP1;P1;durP2;ratioP2;P2;SDS_P1;SDS_P2;PMS_P1;PMS_P2;Temp;Humidity;BMP_temperature;BMP_pressure;BME280_temperature;BME280_humidity;BME280_pressure;Samples;Min_cycle;Max_cycle;Signal;HPM_P1;HPM_P2
2023/05/16 00:00:42;;;;;;;22.95;14.65;;;10.80;99.90;;;-144.05;81.90;56882.81;5015185;28;20040;-84
2023/05/16 00:03:10;;;;;;;25.38;16.80;;;10.80;99.90;;;-144.05;81.66;56882.81;5015169;28;20637;-84
2023/05/16 00:05:37;;;;;;;24.70;15.75;;;10.70;99.90;;;-144.05;82.31;56836.09;5015383;28;20028;-85
2023/05/16 00:08:04;;;;;;;23.33;15.13;;;10.70;99.90;;;-144.05;82.36;56865.81;5014946;28;20029;-84
2023/05/16 00:10:30;;;;;;;24.80;16.20;;;10.70;99.90;;;-144.05;82.18;56882.81;5033149;28;20043;-83
2023/05/16 00:12:56;;;;;;;26.67;15.63;;;10.70;99.90;;;-144.05;82.91;56859.47;5015140;28;20045;-84
2023/05/16 00:15:23;;;;;;;23.20;14.68;;;10.60;99.90;;;-144.05;82.86;56904.06;5018585;28;20032;-85
2023/05/16 00:17:50;;;;;;;25.88;16.13;;;10.70;99.90;;;-144.05;83.07;56878.56;5028307;28;20497;-82
2023/05/16 00:20:21;;;;;;;24.95;14.90;;;10.70;99.90;;;-144.05;82.80;56880.69;5045972;28;20388;-83
2023/05/16 00:22:47;;;;;;;24.40;14.63;;;10.70;99.90;;;-144.05;82.72;56865.81;5020701;28;20048;-84
2023/05/16 00:25:13;;;;;;;22.27;14.20;;;10.60;99.90;;;-144.05;82.74;56895.56;5014847;28;20477;-83
2023/05/16 00:27:39;;;;;;;21.13;13.30;;;10.70;99.90;;;-144.05;83.02;56865.81;5031732;28;20476;-83
2023/05/16 00:30:06;;;;;;;17.60;11.27;;;10.60;99.90;;;-144.05;82.60;56901.94;5035160;28;20026;-85
2023/05/16 00:32:32;;;;;;;17.33;10.73;;;10.50;99.90;;;-144.05;82.50;56880.69;5017757;28;20029;-83
2023/05/16 00:34:58;;;;;;;17.63;8.40;;;10.50;99.90;;;-144.05;82.41;56914.69;5014776;28;20036;-85
2023/05/16 00:37:24;;;;;;;14.52;8.60;;;10.40;99.90;;;-144.05;82.76;56865.81;5014211;28;20033;-82
2023/05/16 00:39:50;;;;;;;13.35;9.32;;;10.40;99.90;;;-144.05;82.45;56904.06;5014705;28;20402;-83
2023/05/16 00:42:19;;;;;;;13.45;9.23;;;10.30;99.90;;;-144.05;82.54;56870.06;5014491;28;20397;-82
2023/05/16 00:44:47;;;;;;;16.60;9.63;;;10.30;99.90;;;-144.05;82.64;56870.06;5014305;28;20460;-84
2023/05/16 00:47:13;;;;;;;17.55;10.82;;;10.30;99.90;;;-144.05;82.96;56846.72;5014694;28;20069;-83
2023/05/16 00:49:39;;;;;;;14.90;9.30;;;10.30;99.90;;;-144.05;82.64;56876.44;5014561;28;20048;-84
2023/05/16 00:52:06;;;;;;;17.48;10.60;;;10.30;99.90;;;-144.05;83.21;56861.56;5014755;28;20548;-83
2023/05/16 00:54:33;;;;;;;18.05;10.50;;;10.40;99.90;;;-144.05;83.17;56901.94;5014500;28;20034;-83
2023/05/16 00:56:59;;;;;;;16.15;9.93;;;10.30;99.90;;;-144.05;83.18;56874.31;5014541;28;20473;-83
2023/05/16 00:59:26;;;;;;;13.60;8.75;;;10.30;99.90;;;-144.05;83.54;56878.56;5014263;28;20044;-84
2023/05/16 01:01:52;;;;;;;15.80;10.02;;;10.30;99.90;;;-144.05;83.40;56865.81;5014448;28;20108;-83
2023/05/16 01:04:19;;;;;;;16.35;8.80;;;10.40;99.90;;;-144.05;83.28;56865.81;5014487;28;20036;-82
2023/05/16 01:06:45;;;;;;;12.93;8.98;;;10.40;99.90;;;-144.05;83.22;56878.56;5014292;28;20460;-83
2023/05/16 01:09:13;;;;;;;13.93;9.52;;;10.30;99.90;;;-144.05;83.13;56876.44;5014328;28;20028;-83
2023/05/16 01:12:08;;;;;;;13.73;9.25;;;10.40;99.90;;;-144.05;83.19;56884.94;5014123;28;20075;-85
2023/05/16 01:15:03;;;;;;;13.30;8.32;;;10.30;99.90;;;-144.05;83.36;56880.69;5033076;28;20029;-85
2023/05/16 01:17:55;;;;;;;12.13;7.20;;;10.30;99.90;;;-144.05;83.37;56874.31;5014155;28;20029;-82
2023/05/16 01:21:08;;;;;;;11.20;6.82;;;10.30;99.90;;;-144.05;83.29;56867.94;5014179;28;20120;-82
2023/05/16 01:23:37;;;;;;;9.27;6.45;;;10.20;99.90;;;-144.05;83.19;56889.19;4944830;29;20050;-85
2023/05/16 01:26:31;;;;;;;11.93;7.13;;;10.30;99.90;;;-144.05;83.38;56891.31;5025112;28;20165;-82
2023/05/16 01:28:57;;;;;;;10.27;5.60;;;10.30;99.90;;;-144.05;83.18;56887.06;5013961;28;20033;-83
2023/05/16 01:31:23;;;;;;;8.85;6.40;;;10.20;99.90;;;-144.05;83.24;56891.31;5031810;28;20052;-83
2023/05/16 01:33:49;;;;;;;10.63;6.80;;;10.20;99.90;;;-144.05;83.16;56863.69;5014234;28;20030;-83
2023/05/16 01:36:51;;;;;;;9.30;6.35;;;10.20;99.90;;;-144.05;83.51;56863.69;5014200;28;20033;-83
2023/05/16 01:40:06;;;;;;;8.43;5.50;;;10.20;99.90;;;-144.05;83.57;56878.56;5013934;28;20512;-83
2023/05/16 01:42:41;;;;;;;7.68;4.80;;;10.20;99.90;;;-144.05;83.63;56876.44;5014288;28;20045;-82
2023/05/16 01:45:30;;;;;;;7.70;4.50;;;10.20;99.90;;;-144.05;83.91;56874.31;5014157;28;20045;-86
2023/05/16 01:48:21;;;;;;;5.22;3.35;;;10.10;99.90;;;-144.05;83.50;56889.19;5014509;28;20036;-83
2023/05/16 01:50:56;;;;;;;5.35;3.30;;;10.10;99.90;;;-144.05;83.72;56884.94;5017988;28;20481;-84
2023/05/16 01:53:32;;;;;;;4.25;2.22;;;10.10;99.90;;;-144.05;83.39;56874.31;5017952;28;20061;-83
2023/05/16 01:56:01;;;;;;;4.53;2.85;;;10.00;99.90;;;-144.05;83.21;56891.31;5017832;28;20029;-83
2023/05/16 01:58:35;;;;;;;6.18;2.20;;;9.90;99.90;;;-144.05;83.34;56882.81;5017651;28;20095;-83
2023/05/16 02:01:04;;;;;;;2.38;1.92;;;9.80;99.90;;;-144.05;82.77;56882.81;5017901;28;20029;-84
2023/05/16 02:03:31;;;;;;;7.03;2.08;;;9.70;99.90;;;-144.05;82.49;56859.47;5017671;28;20263;-83
2023/05/16 02:05:57;;;;;;;3.35;1.92;;;9.60;99.90;;;-144.05;82.70;56891.31;5017721;28;20489;-82
2023/05/16 02:08:25;;;;;;;5.30;2.00;;;9.50;99.90;;;-144.05;82.63;56880.69;5017872;28;20512;-82
2023/05/16 02:10:52;;;;;;;6.60;2.53;;;9.40;99.90;;;-144.05;83.60;56887.06;5017893;28;20453;-84
2023/05/16 02:13:18;;;;;;;7.10;2.55;;;9.40;99.90;;;-144.05;82.72;56865.81;5017981;28;20045;-83
2023/05/16 02:15:44;;;;;;;9.45;2.90;;;9.40;99.90;;;-144.05;82.41;56878.56;5035422;28;20029;-85
2023/05/16 02:18:11;;;;;;;8.93;2.55;;;9.20;99.90;;;-144.05;82.88;56887.06;5017530;28;20035;-83
2023/05/16 02:20:38;;;;;;;10.68;3.40;;;9.10;99.90;;;-144.05;82.77;56884.94;5017639;28;20115;-83
2023/05/16 02:23:04;;;;;;;12.48;3.15;;;9.00;99.90;;;-144.05;82.68;56893.44;5017702;28;20036;-83
2023/05/16 02:25:30;;;;;;;11.43;3.38;;;9.00;99.90;;;-144.05;82.13;56895.56;5017663;28;20040;-83
2023/05/16 02:27:56;;;;;;;10.10;3.10;;;8.90;99.90;;;-144.05;81.95;56887.06;5017700;28;20021;-83
2023/05/16 02:30:22;;;;;;;13.38;3.30;;;8.80;99.90;;;-144.05;82.22;56908.31;5033903;28;20389;-82
2023/05/16 02:32:48;;;;;;;13.60;3.55;;;8.90;99.90;;;-144.05;82.16;56895.56;5017365;28;20037;-82
2023/05/16 02:35:14;;;;;;;11.50;3.22;;;8.90;99.90;;;-144.05;82.21;56891.31;5017725;28;20071;-83
2023/05/16 02:37:41;;;;;;;13.13;4.38;;;8.80;99.90;;;-144.05;82.24;56901.94;5017293;28;20473;-82
2023/05/16 02:40:08;;;;;;;9.95;3.50;;;8.80;99.90;;;-144.05;82.11;56904.06;5017294;28;20029;-82
2023/05/16 02:42:34;;;;;;;9.45;3.28;;;8.80;99.90;;;-144.05;82.02;56872.19;5017057;28;20040;-84
2023/05/16 02:45:00;;;;;;;14.23;3.47;;;8.80;99.90;;;-144.05;82.21;56891.31;5017094;28;20477;-83
2023/05/16 02:47:26;;;;;;;11.07;3.22;;;8.80;99.90;;;-144.05;81.99;56882.81;5017602;28;20029;-82
2023/05/16 02:49:52;;;;;;;12.77;4.05;;;8.70;99.90;;;-144.05;82.25;56887.06;5019616;28;20029;-83
2023/05/16 02:52:19;;;;;;;13.40;4.05;;;8.70;99.90;;;-144.05;82.71;56878.56;5017601;28;20108;-84
2023/05/16 02:54:45;;;;;;;10.27;3.55;;;8.70;99.90;;;-144.05;82.15;56889.19;5017186;28;20045;-84
2023/05/16 02:57:11;;;;;;;13.45;4.63;;;8.70;99.90;;;-144.05;82.23;56887.06;5017304;28;20229;-84
2023/05/16 02:59:37;;;;;;;14.85;3.97;;;8.70;99.90;;;-144.05;82.17;56874.31;5016122;28;20489;-84
2023/05/16 03:02:04;;;;;;;14.40;4.03;;;8.80;99.90;;;-144.05;82.32;56895.56;5034439;28;20033;-83
2023/05/16 03:04:30;;;;;;;9.27;3.40;;;8.80;99.90;;;-144.05;82.26;56895.56;5016516;28;20123;-83
2023/05/16 03:06:56;;;;;;;18.45;4.63;;;8.80;99.90;;;-144.05;82.44;56893.44;5016511;28;20061;-83
2023/05/16 03:09:22;;;;;;;11.50;4.03;;;8.70;99.90;;;-144.05;82.49;56876.44;5016452;28;20036;-83
2023/05/16 03:11:48;;;;;;;16.40;3.90;;;8.80;99.90;;;-144.05;82.24;56889.19;5016692;28;20389;-83
2023/05/16 03:14:14;;;;;;;15.10;4.63;;;8.90;99.90;;;-144.05;82.54;56891.31;5016758;28;20492;-83
2023/05/16 03:16:42;;;;;;;18.20;5.10;;;8.90;99.90;;;-144.05;82.31;56870.06;5016683;28;20505;-83
2023/05/16 03:19:09;;;;;;;15.32;4.10;;;8.80;99.90;;;-144.05;82.63;56910.44;5016403;28;20021;-82
2023/05/16 03:21:35;;;;;;;14.82;4.88;;;8.80;99.90;;;-144.05;82.89;56874.31;5016562;28;20026;-83
2023/05/16 03:24:03;;;;;;;9.90;3.47;;;8.80;99.90;;;-144.05;82.76;56891.31;5016618;28;20033;-82
2023/05/16 03:26:28;;;;;;;13.77;4.50;;;8.90;99.90;;;-144.05;82.83;56889.19;5023757;28;20034;-85
2023/05/16 03:28:55;;;;;;;13.85;3.78;;;8.90;99.90;;;-144.05;82.75;56906.19;5027392;28;20124;-82
2023/05/16 03:31:20;;;;;;;15.20;4.38;;;8.90;99.90;;;-144.05;82.57;56876.44;5016418;28;20057;-82
2023/05/16 03:33:46;;;;;;;11.32;4.53;;;8.90;99.90;;;-144.05;82.46;56870.06;5017248;28;20406;-83
2023/05/16 03:36:13;;;;;;;13.80;4.15;;;8.80;99.90;;;-144.05;82.47;56897.69;5016823;28;20648;-85
2023/05/16 03:38:39;;;;;;;19.80;4.40;;;8.90;99.90;;;-144.05;82.77;56916.81;5018422;28;20080;-84
2023/05/16 03:41:05;;;;;;;14.90;4.18;;;8.80;99.90;;;-144.05;82.86;56889.19;5017946;28;20397;-85
2023/05/16 03:43:31;;;;;;;16.33;4.03;;;8.80;99.90;;;-144.05;82.12;56893.44;5019750;28;20103;-84
2023/05/16 03:45:57;;;;;;;18.77;4.57;;;8.70;99.90;;;-144.05;81.34;56870.06;5018940;28;20091;-80
2023/05/16 03:48:23;;;;;;;16.17;3.90;;;8.70;99.90;;;-144.05;81.31;56876.44;5017864;28;20168;-82
2023/05/16 03:50:50;;;;;;;17.27;4.88;;;8.70;99.90;;;-144.05;80.53;56872.19;5017447;28;20033;-84
2023/05/16 03:53:16;;;;;;;16.55;4.13;;;8.60;99.90;;;-144.05;80.87;56882.81;5018639;28;20496;-84
2023/05/16 03:55:42;;;;;;;21.40;3.67;;;8.50;99.90;;;-144.05;80.50;56916.81;5018390;28;20030;-86
2023/05/16 03:58:08;;;;;;;18.58;4.07;;;8.60;99.90;;;-144.05;80.75;56882.81;5017843;28;20028;-84
2023/05/16 04:00:35;;;;;;;15.27;3.90;;;8.50;99.90;;;-144.05;80.63;56872.19;5017187;28;20032;-82
2023/05/16 04:03:01;;;;;;;11.73;3.65;;;8.50;99.90;;;-144.05;80.74;56908.31;5017342;28;20388;-82
2023/05/16 04:05:28;;;;;;;14.80;5.32;;;8.50;99.90;;;-144.05;80.80;56897.69;5018189;28;20354;-82
2023/05/16 04:07:54;;;;;;;17.83;3.80;;;8.50;99.90;;;-144.05;80.82;56882.81;5017934;28;20037;-82
2023/05/16 04:10:20;;;;;;;18.02;4.10;;;8.50;99.90;;;-144.05;80.80;56908.31;5034231;28;20025;-83
2023/05/16 04:12:46;;;;;;;14.48;3.90;;;8.60;99.90;;;-144.05;80.96;56870.06;5034924;28;20045;-84
2023/05/16 04:15:12;;;;;;;17.60;3.97;;;8.60;99.90;;;-144.05;80.90;56906.19;5016778;28;20052;-83
2023/05/16 04:17:38;;;;;;;21.85;4.30;;;8.60;99.90;;;-144.05;80.58;56904.06;5035240;28;20033;-81
2023/05/16 04:20:06;;;;;;;17.20;4.45;;;8.50;99.90;;;-144.05;79.83;56925.28;5016724;28;20136;-83
2023/05/16 04:22:32;;;;;;;16.60;4.03;;;8.50;99.90;;;-144.05;79.50;56889.19;5016684;28;20040;-83
2023/05/16 04:24:58;;;;;;;15.10;3.63;;;8.40;99.90;;;-144.05;79.50;56899.81;5016257;28;20052;-85
2023/05/16 04:27:25;;;;;;;17.77;3.33;;;8.40;99.90;;;-144.05;79.10;56918.94;5016714;28;20060;-84
2023/05/16 04:29:51;;;;;;;25.98;3.63;;;8.40;99.90;;;-144.05;78.94;56912.56;5033186;28;20026;-83
2023/05/16 04:32:18;;;;;;;18.73;3.20;;;8.30;99.90;;;-144.05;79.20;56908.31;5018795;28;20033;-84
2023/05/16 04:34:45;;;;;;;20.42;3.50;;;8.20;99.90;;;-144.05;79.00;56867.94;5020826;28;20033;-82
2023/05/16 04:37:11;;;;;;;17.77;3.63;;;8.10;99.90;;;-144.05;78.98;56867.94;5036342;28;20113;-83
2023/05/16 04:39:37;;;;;;;14.10;4.70;;;8.10;99.90;;;-144.05;79.16;56897.69;5035165;28;20053;-82
2023/05/16 04:42:04;;;;;;;14.85;3.58;;;8.10;99.90;;;-144.05;79.43;56895.56;5016947;28;20037;-84
2023/05/16 04:44:30;;;;;;;20.60;3.70;;;8.00;99.90;;;-144.05;79.05;56891.31;5016856;28;20057;-83
2023/05/16 04:46:56;;;;;;;24.20;4.72;;;8.00;99.90;;;-144.05;79.33;56893.44;5017025;28;20032;-83
2023/05/16 04:49:22;;;;;;;21.23;4.07;;;8.00;99.90;;;-144.05;79.20;56887.06;5017569;28;20026;-83
2023/05/16 04:51:48;;;;;;;21.83;4.88;;;7.90;99.90;;;-144.05;78.98;56895.56;5016550;28;20029;-84
2023/05/16 04:54:15;;;;;;;14.35;3.05;;;7.90;99.90;;;-144.05;78.90;56895.56;5016699;28;20504;-84
2023/05/16 04:56:41;;;;;;;18.92;4.75;;;7.90;99.90;;;-144.05;79.37;56908.31;5016810;28;20569;-84
2023/05/16 04:59:06;;;;;;;19.33;4.40;;;7.90;99.90;;;-144.05;78.81;56891.31;5017122;28;20072;-83
2023/05/16 05:01:32;;;;;;;13.40;3.08;;;8.10;99.90;;;-144.05;79.01;56882.81;5017686;28;20029;-83
2023/05/16 05:03:58;;;;;;;17.60;3.75;;;8.10;99.90;;;-144.05;78.76;56872.19;5016805;28;20164;-84
2023/05/16 05:06:24;;;;;;;15.38;3.05;;;8.20;99.90;;;-144.05;78.28;56884.94;5034946;28;20067;-85
2023/05/16 05:08:50;;;;;;;18.40;3.15;;;8.20;99.90;;;-144.05;77.60;56895.56;5016440;28;20025;-84
2023/05/16 05:11:16;;;;;;;19.42;3.10;;;8.40;99.90;;;-144.05;77.34;56904.06;5016917;28;20025;-85
2023/05/16 05:13:42;;;;;;;16.10;4.07;;;8.40;99.90;;;-144.05;77.68;56901.94;5035062;28;20029;-85
2023/05/16 05:16:08;;;;;;;18.83;3.50;;;8.60;99.90;;;-144.05;76.35;56895.56;5017253;28;20053;-84
2023/05/16 05:18:34;;;;;;;16.23;3.53;;;8.60;99.90;;;-144.05;75.79;56863.69;5020837;28;20028;-80
2023/05/16 05:20:59;;;;;;;20.55;3.72;;;8.70;99.90;;;-144.05;74.89;56910.44;5056580;28;20053;-78
2023/05/16 05:23:25;;;;;;;12.23;3.22;;;8.80;99.90;;;-144.05;74.79;56904.06;5038860;28;20026;-79
2023/05/16 05:25:51;;;;;;;15.10;3.30;;;9.10;99.90;;;-144.05;74.22;56889.19;5056234;28;20053;-79
2023/05/16 05:28:17;;;;;;;15.70;3.42;;;9.10;99.90;;;-144.05;73.48;56874.31;5056381;28;20024;-79
2023/05/16 05:30:43;;;;;;;11.10;2.50;;;9.40;99.90;;;-144.05;72.70;56889.19;5038845;28;20037;-84
2023/05/16 05:33:15;;;;;;;18.27;3.92;;;9.60;99.90;;;-144.05;71.80;56848.84;5023203;28;20436;-84
2023/05/16 05:35:41;;;;;;;18.38;3.17;;;9.80;99.90;;;-144.05;70.47;56872.19;5017711;28;20466;-85
2023/05/16 05:38:06;;;;;;;11.90;2.92;;;9.80;99.90;;;-144.05;70.40;56882.81;5017014;28;20057;-84
2023/05/16 05:40:32;;;;;;;16.10;2.92;;;9.90;99.90;;;-144.05;67.52;56891.31;5017232;28;20099;-81
2023/05/16 05:42:58;;;;;;;20.98;3.85;;;9.80;99.90;;;-144.05;66.76;56882.81;5017690;28;20045;-83
2023/05/16 05:45:24;;;;;;;18.58;2.88;;;9.80;99.90;;;-144.05;66.59;56861.56;5018790;28;20136;-83
2023/05/16 05:47:50;;;;;;;13.00;2.88;;;9.80;99.90;;;-144.05;66.87;56872.19;5018352;28;20038;-84
2023/05/16 05:50:17;;;;;;;17.55;3.30;;;10.20;99.90;;;-144.05;66.77;56874.31;5016701;28;20117;-82
2023/05/16 05:52:43;;;;;;;10.45;2.50;;;10.10;99.90;;;-144.05;66.20;56891.31;5016514;28;20029;-83
2023/05/16 05:55:09;;;;;;;20.55;3.45;;;10.20;99.90;;;-144.05;65.05;56884.94;5018618;28;20098;-85
2023/05/16 05:57:34;;;;;;;15.63;2.83;;;10.30;99.90;;;-144.05;64.02;56908.31;5017800;28;20030;-84
2023/05/16 06:00:00;;;;;;;15.60;3.17;;;10.20;99.90;;;-144.05;64.05;56887.06;5017251;28;20175;-85
2023/05/16 06:02:26;;;;;;;13.05;2.30;;;10.30;99.90;;;-144.05;64.50;56863.69;5016709;28;20093;-82
2023/05/16 06:04:52;;;;;;;14.43;2.30;;;10.30;99.90;;;-144.05;63.70;56874.31;5016285;28;20026;-84
2023/05/16 06:07:18;;;;;;;16.27;3.03;;;10.50;99.90;;;-144.05;63.48;56882.81;5016138;28;20037;-84
2023/05/16 06:09:44;;;;;;;17.23;3.00;;;10.50;99.90;;;-144.05;63.94;56870.06;5016425;28;20021;-82
2023/05/16 06:12:10;;;;;;;11.98;2.55;;;10.50;99.90;;;-144.05;63.47;56895.56;5015698;28;20087;-86
2023/05/16 06:14:36;;;;;;;12.25;2.88;;;10.70;99.90;;;-144.05;62.26;56861.56;5015786;28;20025;-82
2023/05/16 06:17:02;;;;;;;16.90;2.40;;;10.90;99.90;;;-144.05;60.69;56882.81;5015827;28;20100;-84
2023/05/16 06:19:27;;;;;;;14.40;2.88;;;11.00;99.90;;;-144.05;60.57;56870.06;5015673;28;20021;-82
2023/05/16 06:21:53;;;;;;;12.30;2.38;;;10.90;99.90;;;-144.05;60.36;56904.06;5015467;28;20033;-83
2023/05/16 06:24:19;;;;;;;15.50;2.88;;;10.80;99.90;;;-144.05;61.03;56863.69;5014499;28;20026;-83
2023/05/16 06:26:48;;;;;;;16.70;2.92;;;10.90;99.90;;;-144.05;59.67;56882.81;5032125;28;20120;-81
2023/05/16 06:29:16;;;;;;;12.13;3.03;;;11.00;99.90;;;-144.05;59.24;56882.81;5014574;28;20029;-84
2023/05/16 06:31:42;;;;;;;16.50;3.92;;;10.90;99.90;;;-144.05;60.26;56865.81;5014770;28;20022;-82
2023/05/16 06:34:08;;;;;;;12.77;2.15;;;11.00;99.90;;;-144.05;59.31;56870.06;5014443;28;20044;-82
2023/05/16 06:36:34;;;;;;;18.25;2.63;;;11.30;99.90;;;-144.05;57.91;56857.34;5017247;28;20124;-83
2023/05/16 06:39:00;;;;;;;8.13;2.08;;;11.60;99.90;;;-144.05;56.03;56867.94;5022532;28;20049;-83
2023/05/16 06:41:25;;;;;;;11.82;2.25;;;11.80;99.90;;;-144.05;56.35;56880.69;5023726;28;20511;-84
2023/05/16 06:43:51;;;;;;;15.07;2.20;;;12.00;99.90;;;-144.05;54.82;56870.06;5020808;28;20036;-84
2023/05/16 06:46:17;;;;;;;12.38;1.95;;;12.60;99.90;;;-144.05;54.54;56878.56;5019194;28;20022;-83
2023/05/16 06:48:43;;;;;;;12.90;2.95;;;12.60;99.90;;;-144.05;54.22;56874.31;5017487;28;20489;-84
2023/05/16 06:51:09;;;;;;;13.55;2.38;;;12.80;99.90;;;-144.05;54.48;56853.09;5018360;28;20432;-83
2023/05/16 06:53:35;;;;;;;10.63;2.55;;;12.70;99.90;;;-144.05;53.88;56876.44;5018598;28;20025;-83
2023/05/16 06:56:01;;;;;;;11.77;2.08;;;12.90;99.90;;;-144.05;52.09;56880.69;5019489;28;20079;-82
2023/05/16 06:58:27;;;;;;;14.90;2.85;;;13.00;99.90;;;-144.05;50.17;56887.06;5019590;28;20029;-83
2023/05/16 07:00:53;;;;;;;8.05;1.65;;;12.60;99.90;;;-144.05;53.43;56863.69;5020650;28;20033;-82
2023/05/16 07:03:19;;;;;;;20.38;2.58;;;12.60;99.90;;;-144.05;51.26;56874.31;5021268;28;20040;-83
2023/05/16 07:05:45;;;;;;;13.38;2.85;;;12.60;99.90;;;-144.05;52.41;56880.69;5019401;28;20032;-80
2023/05/16 07:08:11;;;;;;;8.48;2.10;;;12.40;99.90;;;-144.05;51.48;56865.81;5017861;28;20033;-82
2023/05/16 07:10:38;;;;;;;9.35;2.22;;;12.80;99.90;;;-144.05;49.74;56882.81;5018351;28;20485;-81
2023/05/16 07:13:06;;;;;;;15.23;2.30;;;12.70;99.90;;;-144.05;49.91;56880.69;5018149;28;20041;-83
2023/05/16 07:15:32;;;;;;;17.90;2.35;;;12.50;99.90;;;-144.05;50.65;56876.44;5035470;28;20544;-80
2023/05/16 07:17:57;;;;;;;13.85;2.13;;;12.20;99.90;;;-144.05;50.77;56859.47;5035357;28;20464;-83
2023/05/16 07:20:24;;;;;;;9.63;1.88;;;11.90;99.90;;;-144.05;50.76;56882.81;5035124;28;20061;-84
2023/05/16 07:22:50;;;;;;;12.43;2.70;;;11.50;99.90;;;-144.05;52.75;56876.44;5016871;28;20389;-86
2023/05/16 07:25:17;;;;;;;12.02;2.80;;;11.10;99.90;;;-144.05;53.85;56887.06;5019909;28;20026;-83
2023/05/16 07:27:43;;;;;;;10.73;2.05;;;10.80;99.90;;;-144.05;53.90;56867.94;5033752;28;20030;-82
2023/05/16 07:30:13;;;;;;;12.32;2.20;;;11.40;99.90;;;-144.05;52.19;56872.19;5034780;28;20083;-80
2023/05/16 07:32:39;;;;;;;7.05;1.80;;;12.30;99.90;;;-144.05;49.13;56863.69;5036235;28;20045;-83
2023/05/16 07:35:06;;;;;;;9.77;2.00;;;13.00;99.90;;;-144.05;46.24;56865.81;5032712;28;20025;-83
2023/05/16 07:37:32;;;;;;;10.65;2.50;;;13.30;99.90;;;-144.05;46.25;56882.81;5017120;28;20049;-82
2023/05/16 07:39:58;;;;;;;10.32;2.15;;;13.50;99.90;;;-144.05;46.19;56876.44;5035775;28;20389;-83
2023/05/16 07:42:24;;;;;;;10.38;2.30;;;13.90;99.90;;;-144.05;45.58;56861.56;5019402;28;20030;-84
2023/05/16 07:44:50;;;;;;;7.05;1.92;;;14.10;99.90;;;-144.05;44.49;56867.94;5039869;28;20052;-83
2023/05/16 07:47:16;;;;;;;8.23;2.13;;;14.40;99.90;;;-144.05;42.89;56857.34;5051045;28;20037;-79
2023/05/16 07:49:41;;;;;;;15.13;2.10;;;14.30;99.90;;;-144.05;42.82;56861.56;5033544;28;20478;-84
2023/05/16 07:52:07;;;;;;;10.73;1.60;;;14.60;99.90;;;-144.05;42.94;56865.81;5016051;28;20021;-83
2023/05/16 07:54:35;;;;;;;9.55;1.77;;;14.70;99.90;;;-144.05;42.03;56859.47;5016606;28;20033;-83
2023/05/16 07:57:02;;;;;;;6.65;1.60;;;14.90;99.90;;;-144.05;41.84;56884.94;5034396;28;20041;-84
2023/05/16 07:59:28;;;;;;;7.00;1.42;;;15.00;99.90;;;-144.05;40.75;56870.06;5016862;28;20209;-84
2023/05/16 08:01:55;;;;;;;11.60;1.73;;;15.20;99.90;;;-144.05;39.47;56876.44;5016189;28;20517;-82
2023/05/16 08:04:21;;;;;;;6.88;1.40;;;15.50;99.90;;;-144.05;38.61;56880.69;5015974;28;20030;-84
2023/05/16 08:06:47;;;;;;;11.77;1.67;;;15.60;99.90;;;-144.05;37.93;56882.81;5015944;28;20500;-84
2023/05/16 08:09:12;;;;;;;7.00;1.83;;;15.80;99.90;;;-144.05;36.79;56908.31;5016499;28;20067;-81
2023/05/16 08:11:38;;;;;;;6.80;1.40;;;16.20;99.90;;;-144.05;37.61;56904.06;5017377;28;20366;-83
2023/05/16 08:14:05;;;;;;;9.05;1.95;;;15.50;99.90;;;-144.05;38.85;56884.94;5016682;28;20040;-82
2023/05/16 08:16:31;;;;;;;7.10;1.60;;;14.80;99.90;;;-144.05;39.44;56887.06;5016397;28;20029;-82
2023/05/16 08:18:57;;;;;;;9.45;1.58;;;13.80;99.90;;;-144.05;41.99;56887.06;5015615;28;20040;-82
2023/05/16 08:21:23;;;;;;;5.35;1.30;;;13.10;99.90;;;-144.05;41.79;56878.56;5015396;28;20044;-82
2023/05/16 08:23:49;;;;;;;5.65;1.27;;;13.00;99.90;;;-144.05;41.00;56859.47;5015605;28;20124;-80
2023/05/16 08:26:17;;;;;;;8.68;1.30;;;13.70;99.90;;;-144.05;39.33;56891.31;5015790;28;20037;-81
2023/05/16 08:28:42;;;;;;;7.00;1.52;;;14.40;99.90;;;-144.05;38.02;56870.06;5015051;28;20029;-80
2023/05/16 08:31:08;;;;;;;5.35;1.25;;;15.20;99.90;;;-144.05;35.89;56889.19;5015595;28;20135;-85
2023/05/16 08:33:34;;;;;;;6.15;1.58;;;15.60;99.90;;;-144.05;35.83;56899.81;5015458;28;20140;-84
2023/05/16 08:36:00;;;;;;;4.45;1.33;;;16.00;99.90;;;-144.05;36.16;56891.31;5015391;28;20033;-84
2023/05/16 08:38:26;;;;;;;4.15;1.63;;;15.90;99.90;;;-144.05;36.85;56906.19;5015975;28;20030;-84
2023/05/16 08:40:52;;;;;;;6.28;1.52;;;16.00;99.90;;;-144.05;36.96;56870.06;5016353;28;20393;-84
2023/05/16 08:43:18;;;;;;;9.32;1.92;;;15.60;99.90;;;-144.05;38.70;56865.81;5015908;28;20025;-83
2023/05/16 08:45:44;;;;;;;9.57;1.48;;;15.60;99.90;;;-144.05;37.29;56884.94;5015634;28;20026;-85
2023/05/16 08:48:10;;;;;;;8.82;1.63;;;16.00;99.90;;;-144.05;36.18;56884.94;5033330;28;20025;-87
2023/05/16 08:50:36;;;;;;;9.52;1.48;;;16.00;99.90;;;-144.05;34.59;56878.56;5035823;28;20045;-85
2023/05/16 08:53:08;;;;;;;8.25;1.50;;;16.00;99.90;;;-144.05;34.96;56893.44;5029098;28;20025;-80
2023/05/16 08:55:37;;;;;;;5.28;1.35;;;15.70;99.90;;;-144.05;34.92;56882.81;5034619;28;20045;-84
2023/05/16 08:58:04;;;;;;;5.80;1.30;;;16.10;99.90;;;-144.05;34.10;56887.06;5034518;28;20044;-84
2023/05/16 09:00:30;;;;;;;3.63;1.10;;;16.40;97.80;;;-144.05;32.77;56882.81;5055726;28;20056;-78
2023/05/16 09:02:57;;;;;;;6.18;1.00;;;16.60;95.00;;;-144.05;31.80;56878.56;5035164;28;20037;-83
2023/05/16 09:05:24;;;;;;;4.30;1.40;;;16.70;93.00;;;-144.05;32.56;56897.69;5014526;28;20036;-84
2023/05/16 09:07:50;;;;;;;3.83;1.02;;;16.50;93.60;;;-144.05;34.42;56901.94;5032784;28;20033;-83
2023/05/16 09:10:16;;;;;;;8.60;1.42;;;16.30;96.80;;;-144.05;34.81;56891.31;5015500;28;20032;-82
2023/05/16 09:12:42;;;;;;;6.65;1.10;;;15.80;96.10;;;-144.05;35.44;56863.69;5014585;28;20025;-81
2023/05/16 09:15:10;;;;;;;7.85;1.52;;;14.90;97.50;;;-144.05;35.49;56867.94;5014815;28;20029;-83
2023/05/16 09:17:45;;;;;;;5.13;1.10;;;14.30;96.30;;;-144.05;35.73;56874.31;5033831;28;20029;-83
2023/05/16 09:20:19;;;;;;;5.75;1.20;;;14.70;97.40;;;-144.05;33.89;56884.94;5015134;28;20025;-86
2023/05/16 09:22:59;;;;;;;6.63;1.52;;;15.10;95.40;;;-144.05;33.75;56895.56;5023330;28;20029;-83
2023/05/16 09:25:30;;;;;;;6.10;1.70;;;15.50;95.90;;;-144.05;33.67;56901.94;5032022;28;20128;-83
2023/05/16 09:28:00;;;;;;;5.63;1.08;;;15.80;95.10;;;-144.05;32.59;56891.31;5015831;28;20025;-83
2023/05/16 09:30:32;;;;;;;9.30;1.63;;;16.20;93.00;;;-144.05;33.41;56895.56;5015144;28;20025;-84
2023/05/16 09:32:59;;;;;;;7.75;1.23;;;16.50;94.30;;;-144.05;32.54;56897.69;5015412;28;20078;-85
2023/05/16 09:35:26;;;;;;;7.30;1.55;;;16.40;92.50;;;-144.05;34.00;56880.69;5033856;28;20053;-82
2023/05/16 09:37:52;;;;;;;5.65;1.10;;;16.30;94.10;;;-144.05;34.20;56882.81;5033609;28;20022;-82
2023/05/16 09:40:22;;;;;;;5.22;1.27;;;16.30;94.80;;;-144.05;33.04;56897.69;5014904;28;20509;-83
2023/05/16 09:43:06;;;;;;;4.63;1.20;;;16.50;93.40;;;-144.05;34.16;56880.69;5015492;28;20120;-83
2023/05/16 09:45:35;;;;;;;6.68;1.23;;;16.00;94.30;;;-144.05;34.39;56906.19;5015042;28;20029;-84
2023/05/16 09:48:08;;;;;;;6.30;1.40;;;15.60;95.40;;;-144.05;34.76;56912.56;5015172;28;20078;-83
2023/05/16 09:50:36;;;;;;;8.63;1.40;;;15.80;95.50;;;-144.05;35.32;56895.56;5014759;28;20025;-84
2023/05/16 09:53:04;;;;;;;4.22;1.23;;;15.80;96.20;;;-144.05;35.19;56874.31;5016530;28;20139;-84
2023/05/16 09:55:31;;;;;;;3.45;1.38;;;15.70;95.30;;;-144.05;35.90;56904.06;5018300;28;20034;-85
2023/05/16 09:57:57;;;;;;;5.10;1.20;;;15.90;96.90;;;-144.05;35.38;56884.94;5040015;28;20087;-87
2023/05/16 10:00:32;;;;;;;2.90;1.15;;;15.90;96.30;;;-144.05;33.89;56876.44;5036727;28;20037;-78
2023/05/16 10:03:04;;;;;;;6.65;1.75;;;16.30;94.50;;;-144.05;33.73;56876.44;5056183;28;20021;-78
2023/05/16 10:05:30;;;;;;;4.97;1.17;;;16.10;93.40;;;-144.05;34.97;56887.06;5031384;28;20065;-84